Aviation Digital Data Service (ADDS)

Output produced by TAFs form (1704 UTC 19 January 2017)
found at http://aviationweather.gov/adds/tafs/
 
KAEG 191132Z 1912/2012 VRB05KT P6SM SKC 
     FM191800 27011KT P6SM SCT130 BKN200 
     FM192000 27014G23KT P6SM SCT060 BKN100 
     FM200100 25010KT P6SM SCT035 BKN060 
     FM200600 21008KT P6SM BKN035